createdAt,value
2018-06-14T00:01:53.855Z,97876.75
2018-06-14T00:04:24.856Z,97878.25
2018-06-14T00:06:57.058Z,97874.47
2018-06-14T00:09:29.209Z,97864.91
2018-06-14T00:12:01.014Z,97863.59
2018-06-14T00:14:32.112Z,97866.41
2018-06-14T00:17:03.364Z,97871.68
2018-06-14T00:19:34.528Z,97868.39
2018-06-14T00:22:05.635Z,97871.52
2018-06-14T00:24:37.893Z,97873.17
2018-06-14T00:27:09.981Z,97873.97
2018-06-14T00:29:41.483Z,97869.88
2018-06-14T00:32:12.664Z,97862.45
2018-06-14T00:34:43.629Z,97861.30
2018-06-14T00:37:14.752Z,97858.14
2018-06-14T00:39:45.734Z,97855.84
2018-06-14T00:42:16.794Z,97853.87
2018-06-14T00:44:48.409Z,97847.28
2018-06-14T00:47:20.179Z,97835.75
2018-06-14T00:49:51.467Z,97837.09
2018-06-14T00:52:22.821Z,97836.77
2018-06-14T00:54:54.033Z,97836.78
2018-06-14T00:57:28.781Z,97826.73
2018-06-14T01:00:00.488Z,97823.58
2018-06-14T01:02:32.672Z,97820.95
2018-06-14T01:05:04.121Z,97821.29
2018-06-14T01:07:35.241Z,97819.31
2018-06-14T01:10:06.417Z,97817.99
2018-06-14T01:12:38.323Z,97821.94
2018-06-14T01:15:09.423Z,97829.36
2018-06-14T01:17:42.614Z,97823.27
2018-06-14T01:20:13.880Z,97818.48
2018-06-14T01:22:45.050Z,97813.04
2018-06-14T01:25:16.066Z,97815.84
2018-06-14T01:27:47.046Z,97814.71
2018-06-14T01:30:17.979Z,97812.08
2018-06-14T01:32:49.149Z,97813.89
2018-06-14T01:35:21.001Z,97817.50
2018-06-14T01:38:08.201Z,97813.41
2018-06-14T01:40:39.360Z,97806.81
2018-06-14T01:43:10.495Z,97802.20
2018-06-14T01:45:42.506Z,97800.23
2018-06-14T01:48:13.860Z,97793.48
2018-06-14T01:50:45.145Z,97797.43
2018-06-14T01:53:16.418Z,97790.95
2018-06-14T01:55:47.402Z,97798.20
2018-06-14T01:58:18.555Z,97801.67
2018-06-14T02:00:49.718Z,97806.10
2018-06-14T02:03:22.027Z,97810.88
2018-06-14T02:05:53.503Z,97818.61
2018-06-14T02:08:24.557Z,97811.23
2018-06-14T02:11:01.837Z,97818.48
2018-06-14T02:13:32.778Z,97820.31
2018-06-14T02:16:04.851Z,97821.80
2018-06-14T02:18:36.966Z,97830.53
2018-06-14T02:21:08.383Z,97832.16
2018-06-14T02:23:39.984Z,97831.19
2018-06-14T02:26:11.202Z,97836.10
2018-06-14T02:28:42.286Z,97844.52
2018-06-14T02:31:13.447Z,97852.91
2018-06-14T02:33:44.939Z,97857.34
2018-06-14T02:36:17.047Z,97848.94
2018-06-14T02:38:48.095Z,97850.92
2018-06-14T02:41:19.232Z,97855.05
2018-06-14T02:43:50.317Z,97847.62
2018-06-14T02:46:21.504Z,97846.14
2018-06-14T02:48:52.951Z,97845.16
2018-06-14T02:51:24.447Z,97843.84
2018-06-14T02:53:56.078Z,97841.70
2018-06-14T02:56:26.935Z,97837.43
2018-06-14T02:58:58.245Z,97840.06
2018-06-14T03:01:29.967Z,97846.30
2018-06-14T03:04:00.983Z,97847.95
2018-06-14T03:06:32.063Z,97848.61
2018-06-14T03:09:05.446Z,97850.25
2018-06-14T03:11:36.409Z,97854.56
2018-06-14T03:14:08.469Z,97854.70
2018-06-14T03:16:39.695Z,97856.86
2018-06-14T03:19:11.333Z,97867.74
2018-06-14T03:21:42.574Z,97869.06
2018-06-14T03:24:13.426Z,97866.42
2018-06-14T03:26:44.447Z,97865.11
2018-06-14T03:29:15.662Z,97864.77
2018-06-14T03:31:46.753Z,97860.33
2018-06-14T03:34:18.313Z,97861.64
2018-06-14T03:36:49.922Z,97860.81
2018-06-14T03:39:20.862Z,97867.41
2018-06-14T03:41:51.803Z,97877.95
2018-06-14T03:44:22.850Z,97877.11
2018-06-14T03:46:53.757Z,97879.44
2018-06-14T03:49:24.958Z,97875.00
2018-06-14T03:51:56.727Z,97885.54
2018-06-14T03:54:28.868Z,97885.54
2018-06-14T03:57:00.403Z,97877.63
2018-06-14T03:59:32.075Z,97879.75
2018-06-14T04:02:03.473Z,97884.36
2018-06-14T04:04:34.411Z,97884.88
2018-06-14T04:07:05.356Z,97888.17
2018-06-14T04:09:37.339Z,97886.50
2018-06-14T04:12:08.503Z,97886.19
2018-06-14T04:14:39.833Z,97888.82
2018-06-14T04:17:11.872Z,97876.13
2018-06-14T04:19:42.388Z,97873.66
2018-06-14T04:22:13.624Z,97876.95
2018-06-14T04:24:44.920Z,97871.67
2018-06-14T04:27:17.441Z,97867.89
2018-06-14T04:29:48.577Z,97872.66
2018-06-14T04:32:19.922Z,97872.95
2018-06-14T04:34:51.503Z,97878.73
2018-06-14T04:37:22.640Z,97878.71
2018-06-14T04:39:53.638Z,97879.50
2018-06-14T04:42:24.725Z,97877.19
2018-06-14T04:44:57.563Z,97884.13
2018-06-14T04:47:29.932Z,97880.80
2018-06-14T04:50:01.376Z,97883.38
2018-06-14T04:52:32.580Z,97891.25
2018-06-14T04:55:03.689Z,97893.17
2018-06-14T04:57:34.695Z,97889.17
2018-06-14T05:00:09.235Z,97897.68
2018-06-14T05:02:40.503Z,97893.66
2018-06-14T05:05:11.919Z,97898.77
2018-06-14T05:07:44.100Z,97900.45
2018-06-14T05:10:15.277Z,97906.66
2018-06-14T05:12:46.172Z,97902.16
2018-06-14T05:15:17.419Z,97895.83
2018-06-14T05:17:49.396Z,97892.17
2018-06-14T05:20:21.038Z,97890.14
2018-06-14T05:22:52.015Z,97893.02
2018-06-14T05:25:23.205Z,97891.63
2018-06-14T05:27:55.799Z,97900.52
2018-06-14T05:30:26.972Z,97901.50
2018-06-14T05:32:59.098Z,97904.13
2018-06-14T05:35:30.665Z,97896.72
2018-06-14T05:38:01.687Z,97889.58
2018-06-14T05:40:32.565Z,97892.95
2018-06-14T05:43:03.678Z,97888.14
2018-06-14T05:45:34.741Z,97887.12
2018-06-14T05:48:05.941Z,97886.58
2018-06-14T05:50:37.645Z,97877.59
2018-06-14T05:53:09.393Z,97878.55
2018-06-14T05:55:40.412Z,97874.22
2018-06-14T05:58:11.721Z,97874.37
2018-06-14T06:00:43.630Z,97881.78
2018-06-14T06:03:15.712Z,97877.55
2018-06-14T06:05:47.013Z,97885.59
2018-06-14T06:08:20.082Z,97890.78
2018-06-14T06:10:51.369Z,97890.78
2018-06-14T06:13:22.542Z,97890.98
2018-06-14T06:15:54.536Z,97882.28
2018-06-14T06:18:25.941Z,97890.03
2018-06-14T06:20:57.120Z,97900.00
2018-06-14T06:23:28.740Z,97898.25
2018-06-14T06:25:59.973Z,97907.64
2018-06-14T06:28:31.224Z,97920.39
2018-06-14T06:31:03.901Z,97909.52
2018-06-14T06:33:35.306Z,97908.37
2018-06-14T06:36:06.468Z,97911.52
2018-06-14T06:38:37.816Z,97901.62
2018-06-14T06:41:09.160Z,97896.13
2018-06-14T06:43:40.628Z,97899.70
2018-06-14T06:46:12.293Z,97895.06
2018-06-14T06:48:44.004Z,97892.11
2018-06-14T06:51:16.556Z,97892.63
2018-06-14T06:53:48.256Z,97892.42
2018-06-14T06:56:19.701Z,97899.16
2018-06-14T06:58:50.961Z,97901.00
2018-06-14T07:01:22.100Z,97903.98
2018-06-14T07:03:53.307Z,97903.52
2018-06-14T07:06:24.861Z,97905.93
2018-06-14T07:08:56.989Z,97906.06
2018-06-14T07:11:28.472Z,97906.57
2018-06-14T07:13:59.686Z,97895.08
2018-06-14T07:16:31.579Z,97897.55
2018-06-14T07:19:03.347Z,97899.39
2018-06-14T07:21:35.190Z,97897.98
2018-06-14T07:24:06.799Z,97892.81
2018-06-14T07:26:38.785Z,97902.19
2018-06-14T07:29:12.213Z,97899.96
2018-06-14T07:31:44.066Z,97898.97
2018-06-14T07:34:15.933Z,97907.58
2018-06-14T07:36:47.165Z,97906.52
2018-06-14T07:39:18.388Z,97901.61
2018-06-14T07:41:51.046Z,97896.84
2018-06-14T07:44:22.735Z,97905.73
2018-06-14T07:46:55.359Z,97900.95
2018-06-14T07:49:27.674Z,97904.10
2018-06-14T07:51:59.364Z,97907.52
2018-06-14T07:54:31.500Z,97903.27
2018-06-14T07:57:02.843Z,97899.44
2018-06-14T07:59:34.164Z,97905.48
2018-06-14T08:02:05.945Z,97902.35
2018-06-14T08:04:38.604Z,97901.87
2018-06-14T08:07:10.839Z,97907.98
2018-06-14T08:09:41.885Z,97911.37
2018-06-14T08:12:14.049Z,97913.34
2018-06-14T08:14:45.346Z,97916.23
2018-06-14T08:17:17.448Z,97914.31
2018-06-14T08:19:48.548Z,97910.13
2018-06-14T08:22:19.479Z,97909.69
2018-06-14T08:24:54.282Z,97918.36
2018-06-14T08:27:25.405Z,97916.20
2018-06-14T08:29:59.425Z,97917.02
2018-06-14T08:32:45.559Z,97920.81
2018-06-14T08:35:16.714Z,97924.69
2018-06-14T08:37:48.261Z,97922.63
2018-06-14T08:40:22.666Z,97922.98
2018-06-14T08:42:59.739Z,97912.89
2018-06-14T08:45:32.136Z,97919.42
2018-06-14T08:48:03.679Z,97915.27
2018-06-14T08:50:35.436Z,97923.53
2018-06-14T08:53:07.961Z,97918.38
2018-06-14T08:55:40.569Z,97917.80
2018-06-14T08:58:12.873Z,97921.80
2018-06-14T09:00:44.700Z,97922.28
2018-06-14T09:03:17.038Z,97922.44
2018-06-14T09:05:51.326Z,97916.66
2018-06-14T09:08:24.882Z,97917.83
2018-06-14T09:10:55.924Z,97923.25
2018-06-14T09:13:28.453Z,97925.28
2018-06-14T09:16:01.004Z,97913.48
2018-06-14T09:18:32.864Z,97922.42
2018-06-14T09:21:04.770Z,97925.05
2018-06-14T09:23:37.806Z,97925.59
2018-06-14T09:26:10.323Z,97921.33
2018-06-14T09:28:42.696Z,97925.94
2018-06-14T09:31:14.260Z,97931.81
2018-06-14T09:33:45.350Z,97927.83
2018-06-14T09:36:16.676Z,97929.09
2018-06-14T09:38:47.851Z,97921.88
2018-06-14T09:41:20.437Z,97922.69
2018-06-14T09:43:52.742Z,97932.56
2018-06-14T09:46:24.648Z,97937.88
2018-06-14T09:49:00.946Z,97936.23
2018-06-14T09:51:32.873Z,97934.61
2018-06-14T09:54:05.089Z,97932.42
2018-06-14T09:56:37.796Z,97940.25
2018-06-14T09:59:09.813Z,97936.71
2018-06-14T10:01:41.642Z,97940.69
2018-06-14T10:04:12.803Z,97942.41
2018-06-14T10:06:44.912Z,97933.52
2018-06-14T10:09:17.381Z,97939.72
2018-06-14T10:11:49.550Z,97935.18
2018-06-14T10:14:20.816Z,97933.52
2018-06-14T10:16:52.238Z,97925.92
2018-06-14T10:19:23.332Z,97921.83
2018-06-14T10:21:55.953Z,97918.05
2018-06-14T10:24:27.730Z,97921.21
2018-06-14T10:26:59.904Z,97913.60
2018-06-14T10:29:32.423Z,97915.45
2018-06-14T10:32:05.079Z,97907.86
2018-06-14T10:34:36.903Z,97909.10
2018-06-14T10:37:09.247Z,97903.18
2018-06-14T10:39:40.927Z,97896.48
2018-06-14T10:42:12.775Z,97889.97
2018-06-14T10:44:45.468Z,97898.27
2018-06-14T10:47:18.471Z,97899.90
2018-06-14T10:49:52.194Z,97890.71
2018-06-14T10:52:23.509Z,97888.39
2018-06-14T10:54:54.855Z,97889.89
2018-06-14T10:57:28.068Z,97887.91
2018-06-14T11:00:00.215Z,97883.63
2018-06-14T11:02:31.720Z,97886.75
2018-06-14T11:05:03.814Z,97883.13
2018-06-14T11:07:34.961Z,97887.67
2018-06-14T11:10:06.655Z,97885.05
2018-06-14T11:12:39.196Z,97882.58
2018-06-14T11:15:11.181Z,97880.08
2018-06-14T11:17:43.073Z,97874.27
2018-06-14T11:20:14.803Z,97879.14
2018-06-14T11:22:46.573Z,97881.97
2018-06-14T11:25:20.441Z,97876.61
2018-06-14T11:27:56.798Z,97879.56
2018-06-14T11:30:32.339Z,97877.73
2018-06-14T11:33:08.919Z,97874.72
2018-06-14T11:35:41.184Z,97875.53
2018-06-14T11:38:19.227Z,97867.11
2018-06-14T11:40:51.978Z,97881.33
2018-06-14T11:43:24.218Z,97872.41
2018-06-14T11:45:56.144Z,97872.31
2018-06-14T11:48:55.499Z,97869.66
2018-06-14T11:51:30.252Z,97869.41
2018-06-14T11:54:01.814Z,97863.72
2018-06-14T11:56:34.289Z,97871.57
2018-06-14T11:59:13.941Z,97862.52
2018-06-14T12:01:49.071Z,97861.94
2018-06-14T12:04:20.268Z,97864.86
2018-06-14T12:06:56.543Z,97860.39
2018-06-14T12:09:31.103Z,97855.91
2018-06-14T12:12:04.949Z,97859.23
2018-06-14T12:14:38.815Z,97853.66
2018-06-14T12:17:10.187Z,97854.45
2018-06-14T12:19:42.444Z,97863.66
2018-06-14T12:22:15.980Z,97866.55
2018-06-14T12:24:52.681Z,97863.89
2018-06-14T12:27:23.835Z,97856.98
2018-06-14T12:30:00.482Z,97862.42
2018-06-14T12:32:34.815Z,97867.29
2018-06-14T12:35:09.709Z,97862.62
2018-06-14T12:37:42.539Z,97864.12
2018-06-14T12:40:14.361Z,97871.67
2018-06-14T12:42:45.665Z,97865.20
2018-06-14T12:45:17.397Z,97864.21
2018-06-14T12:47:59.466Z,97860.55
2018-06-14T12:50:37.980Z,97863.30
2018-06-14T12:53:14.893Z,97869.64
2018-06-14T12:55:52.307Z,97874.59
2018-06-14T12:58:27.632Z,97872.20
2018-06-14T13:00:59.691Z,97877.98
2018-06-14T13:03:33.590Z,97868.34
2018-06-14T13:06:05.202Z,97869.06
2018-06-14T13:08:36.967Z,97867.64
2018-06-14T13:11:09.132Z,97871.92
2018-06-14T13:13:40.220Z,97870.47
2018-06-14T13:16:11.401Z,97868.75
2018-06-14T13:18:42.699Z,97860.90
2018-06-14T13:21:15.774Z,97866.80
2018-06-14T13:23:46.908Z,97854.09
2018-06-14T13:26:18.245Z,97849.20
2018-06-14T13:28:52.407Z,97852.99
2018-06-14T13:31:29.466Z,97849.13
2018-06-14T13:34:01.966Z,97845.82
2018-06-14T13:36:34.210Z,97842.13
2018-06-14T13:39:08.419Z,97839.02
2018-06-14T13:41:41.516Z,97846.38
2018-06-14T13:44:12.431Z,97837.16
2018-06-14T13:46:48.403Z,97835.28
2018-06-14T13:49:20.857Z,97831.98
2018-06-14T13:51:53.100Z,97831.09
2018-06-14T13:54:27.048Z,97833.26
2018-06-14T13:56:58.785Z,97839.87
2018-06-14T13:59:30.262Z,97838.73
2018-06-14T14:02:01.969Z,97837.81
2018-06-14T14:04:33.752Z,97838.95
2018-06-14T14:07:07.454Z,97837.25
2018-06-14T14:09:39.971Z,97842.86
2018-06-14T14:12:10.573Z,97840.80
2018-06-14T14:14:42.041Z,97844.44
2018-06-14T14:17:15.088Z,97847.12
2018-06-14T14:19:46.414Z,97856.66
2018-06-14T14:22:18.309Z,97854.78
2018-06-14T14:24:50.919Z,97850.73
2018-06-14T14:27:23.368Z,97849.61
2018-06-14T14:29:54.891Z,97853.73
2018-06-14T14:32:25.645Z,97850.21
2018-06-14T14:34:56.306Z,97849.59
2018-06-14T14:37:27.465Z,97850.95
2018-06-14T14:39:59.842Z,97852.17
2018-06-14T14:42:31.271Z,97850.17
2018-06-14T14:45:03.930Z,97841.14
2018-06-14T14:47:36.153Z,97845.37
2018-06-14T14:50:07.430Z,97845.92
2018-06-14T14:52:39.548Z,97845.16
2018-06-14T14:55:11.503Z,97847.78
2018-06-14T14:57:43.566Z,97847.62
2018-06-14T15:00:16.715Z,97850.13
2018-06-14T15:02:49.120Z,97849.24
2018-06-14T15:05:21.017Z,97850.05
2018-06-14T15:07:52.528Z,97841.10
2018-06-14T15:10:24.432Z,97848.08
2018-06-14T15:12:56.880Z,97845.13
2018-06-14T15:15:28.490Z,97851.60
2018-06-14T15:18:01.409Z,97850.64
2018-06-14T15:20:34.156Z,97857.97
2018-06-14T15:23:06.503Z,97856.29
2018-06-14T15:25:37.270Z,97863.68
2018-06-14T15:28:07.529Z,97857.24
2018-06-14T15:30:39.174Z,97864.34
2018-06-14T15:33:12.335Z,97877.77
2018-06-14T15:35:43.409Z,97876.23
2018-06-14T15:38:14.678Z,97871.21
2018-06-14T15:40:46.344Z,97875.41
2018-06-14T15:43:17.483Z,97883.97
2018-06-14T15:45:49.644Z,97881.44
2018-06-14T15:48:22.349Z,97893.45
2018-06-14T15:50:54.487Z,97900.95
2018-06-14T15:53:25.940Z,97888.00
2018-06-14T15:56:19.955Z,97909.45
2018-06-14T15:58:51.507Z,97907.41
2018-06-14T16:01:23.657Z,97915.36
2018-06-14T16:03:55.409Z,97918.98
2018-06-14T16:06:29.969Z,97914.65
2018-06-14T16:09:01.986Z,97917.19
2018-06-14T16:11:34.488Z,97914.55
2018-06-14T16:14:05.909Z,97925.25
2018-06-14T16:16:39.006Z,97927.34
2018-06-14T16:19:12.232Z,97935.64
2018-06-14T16:21:44.577Z,97938.73
2018-06-14T16:24:16.315Z,97939.75
2018-06-14T16:26:48.420Z,97949.20
2018-06-14T16:29:21.115Z,97961.00
2018-06-14T16:31:53.201Z,97959.00
2018-06-14T16:34:25.713Z,97967.30
2018-06-14T16:37:02.823Z,97976.47
2018-06-14T16:39:36.543Z,97974.05
2018-06-14T16:42:10.564Z,97982.70
2018-06-14T16:44:43.492Z,97992.98
2018-06-14T16:47:15.452Z,97986.32
2018-06-14T16:49:48.231Z,97988.97
2018-06-14T16:52:19.879Z,97985.28
2018-06-14T16:54:52.160Z,97997.61
2018-06-14T16:57:23.922Z,97989.63
2018-06-14T16:59:55.193Z,97988.31
2018-06-14T17:02:29.011Z,97985.88
2018-06-14T17:05:01.290Z,97986.94
2018-06-14T17:07:32.988Z,97986.20
2018-06-14T17:10:04.388Z,97985.33
2018-06-14T17:12:35.805Z,97989.58
2018-06-14T17:15:07.987Z,97992.91
2018-06-14T17:17:39.360Z,97998.86
2018-06-14T17:20:12.351Z,98001.73
2018-06-14T17:22:44.256Z,98000.31
2018-06-14T17:25:17.008Z,98000.15
2018-06-14T17:27:49.899Z,98006.53
2018-06-14T17:30:21.646Z,98008.57
2018-06-14T17:32:52.740Z,98013.02
2018-06-14T17:35:25.555Z,98016.78
2018-06-14T17:37:57.228Z,98021.67
2018-06-14T17:40:29.528Z,98019.79
2018-06-14T17:43:01.650Z,98020.34
2018-06-14T17:45:34.848Z,98022.09
2018-06-14T17:48:07.614Z,98021.77
2018-06-14T17:50:40.357Z,98021.06
2018-06-14T17:53:11.970Z,98024.56
2018-06-14T17:55:43.919Z,98028.51
2018-06-14T17:58:16.934Z,98026.41
2018-06-14T18:00:49.814Z,98021.73
2018-06-14T18:03:23.554Z,98025.98
2018-06-14T18:05:56.005Z,98023.12
2018-06-14T18:08:28.907Z,98022.16
2018-06-14T18:11:02.125Z,98027.51
2018-06-14T18:13:36.523Z,98033.77
2018-06-14T18:16:08.928Z,98031.44
2018-06-14T18:18:41.611Z,98033.40
2018-06-14T18:21:14.563Z,98037.33
2018-06-14T18:23:47.399Z,98036.00
2018-06-14T18:26:20.674Z,98034.98
2018-06-14T18:28:54.286Z,98039.80
2018-06-14T18:31:27.803Z,98041.81
2018-06-14T18:34:00.474Z,98033.09
2018-06-14T18:36:35.137Z,98033.91
2018-06-14T18:39:11.818Z,98038.81
2018-06-14T18:41:44.826Z,98036.52
2018-06-14T18:44:18.375Z,98031.71
2018-06-14T18:46:51.117Z,98045.51
2018-06-14T18:49:24.896Z,98037.30
2018-06-14T18:51:58.048Z,98040.64
2018-06-14T18:54:31.080Z,98039.67
2018-06-14T18:57:03.259Z,98036.36
2018-06-14T18:59:35.493Z,98038.16
2018-06-14T19:02:09.414Z,98037.20
2018-06-14T19:04:43.574Z,98036.22
2018-06-14T19:07:16.282Z,98044.45
2018-06-14T19:09:50.186Z,98043.36
2018-06-14T19:12:22.808Z,98045.72
2018-06-14T19:14:55.969Z,98048.78
2018-06-14T19:17:30.299Z,98055.64
2018-06-14T19:20:03.891Z,98060.56
2018-06-14T19:22:36.732Z,98064.20
2018-06-14T19:25:10.652Z,98067.91
2018-06-14T19:27:44.086Z,98074.95
2018-06-14T19:30:18.459Z,98073.50
2018-06-14T19:32:51.276Z,98077.05
2018-06-14T19:35:24.099Z,98077.74
2018-06-14T19:37:58.480Z,98083.13
2018-06-14T19:40:31.720Z,98089.26
2018-06-14T19:43:05.416Z,98090.57
2018-06-14T19:45:38.761Z,98095.05
2018-06-14T19:48:12.296Z,98105.03
2018-06-14T19:50:45.494Z,98110.73
2018-06-14T19:53:18.814Z,98111.48
2018-06-14T19:55:53.322Z,98114.83
2018-06-14T19:58:26.282Z,98110.84
2018-06-14T20:00:58.278Z,98112.45
2018-06-14T20:03:31.413Z,98111.76
2018-06-14T20:06:04.524Z,98114.91
2018-06-14T20:08:39.118Z,98112.31
2018-06-14T20:11:12.391Z,98117.18
2018-06-14T20:13:45.416Z,98111.46
2018-06-14T20:16:18.692Z,98119.17
2018-06-14T20:18:52.108Z,98123.20
2018-06-14T20:21:26.794Z,98120.96
2018-06-14T20:23:59.042Z,98123.86
2018-06-14T20:26:34.230Z,98127.06
2018-06-14T20:29:07.480Z,98133.55
2018-06-14T20:31:41.135Z,98137.72
2018-06-14T20:34:14.694Z,98138.27
2018-06-14T20:36:47.995Z,98131.73
2018-06-14T20:39:21.130Z,98140.03
2018-06-14T20:41:55.236Z,98142.09
2018-06-14T20:44:28.783Z,98140.17
2018-06-14T20:47:02.992Z,98142.03
2018-06-14T20:49:35.551Z,98137.42
2018-06-14T20:52:09.332Z,98139.93
2018-06-14T20:54:42.732Z,98142.13
2018-06-14T20:57:15.853Z,98143.00
2018-06-14T20:59:49.536Z,98145.69
2018-06-14T21:02:22.277Z,98144.41
2018-06-14T21:04:55.968Z,98146.41
2018-06-14T21:07:29.376Z,98153.53
2018-06-14T21:10:03.045Z,98147.09
2018-06-14T21:12:35.894Z,98151.87
2018-06-14T21:15:09.252Z,98150.42
2018-06-14T21:17:41.279Z,98155.42
2018-06-14T21:20:14.003Z,98154.17
2018-06-14T21:22:48.096Z,98158.67
2018-06-14T21:25:19.974Z,98156.06
2018-06-14T21:27:51.599Z,98161.61
2018-06-14T21:30:23.277Z,98150.73
2018-06-14T21:32:54.918Z,98160.75
2018-06-14T21:35:27.118Z,98161.76
2018-06-14T21:38:00.278Z,98163.10
2018-06-14T21:40:31.652Z,98161.47
2018-06-14T21:43:03.419Z,98161.78
2018-06-14T21:45:35.470Z,98167.75
2018-06-14T21:48:07.619Z,98167.44
2018-06-14T21:50:46.114Z,98174.73
2018-06-14T21:53:19.500Z,98174.91
2018-06-14T21:55:51.737Z,98174.42
2018-06-14T21:58:23.136Z,98183.68
2018-06-14T22:00:56.181Z,98182.67
2018-06-14T22:03:33.040Z,98182.69
2018-06-14T22:06:04.020Z,98183.05
2018-06-14T22:08:35.105Z,98180.06
2018-06-14T22:11:06.205Z,98172.49
2018-06-14T22:13:37.759Z,98184.42
2018-06-14T22:16:09.276Z,98186.42
2018-06-14T22:18:40.400Z,98186.56
2018-06-14T22:21:11.407Z,98188.56
2018-06-14T22:23:44.027Z,98190.25
2018-06-14T22:26:15.067Z,98185.47
2018-06-14T22:28:45.958Z,98184.83
2018-06-14T22:31:17.461Z,98181.87
2018-06-14T22:34:04.922Z,98178.58
2018-06-14T22:36:36.078Z,98181.25
2018-06-14T22:39:08.934Z,98180.95
2018-06-14T22:41:40.863Z,98183.92
2018-06-14T22:44:11.733Z,98186.56
2018-06-14T22:46:43.062Z,98190.37
2018-06-14T22:49:14.446Z,98188.88
2018-06-14T22:53:53.958Z,98191.87
2018-06-14T22:56:25.280Z,98193.88
2018-06-14T22:58:56.760Z,98197.50
2018-06-14T23:01:35.321Z,98193.25
2018-06-14T23:04:07.742Z,98192.73
2018-06-14T23:06:40.362Z,98189.45
2018-06-14T23:10:27.746Z,98190.95
2018-06-14T23:12:59.015Z,98188.63
2018-06-14T23:15:30.652Z,98186.31
2018-06-14T23:18:02.084Z,98186.98
2018-06-14T23:20:34.251Z,98179.55
2018-06-14T23:23:06.818Z,98180.73
2018-06-14T23:25:39.207Z,98180.86
2018-06-14T23:28:10.667Z,98183.32
2018-06-14T23:30:41.807Z,98190.58
2018-06-14T23:33:13.046Z,98194.48
2018-06-14T23:35:44.519Z,98193.82
2018-06-14T23:38:15.538Z,98188.53
2018-06-14T23:40:46.897Z,98196.76
2018-06-14T23:43:19.199Z,98191.47
2018-06-14T23:45:50.504Z,98182.58
2018-06-14T23:48:21.488Z,98189.16
2018-06-14T23:50:52.726Z,98182.55
2018-06-14T23:53:23.836Z,98174.28
2018-06-14T23:55:54.896Z,98177.88
2018-06-14T23:58:25.914Z,98167.33
